createdAt,value
2022-08-26T00:00:47.912Z,21.10
2022-08-26T00:03:14.672Z,21.10
2022-08-26T00:05:41.631Z,21.00
2022-08-26T00:08:08.501Z,21.00
2022-08-26T00:10:40.233Z,21.00
2022-08-26T00:13:07.414Z,20.90
2022-08-26T00:15:35.843Z,20.90
2022-08-26T00:18:02.637Z,20.80
2022-08-26T00:20:30.676Z,20.80
2022-08-26T00:22:57.666Z,20.80
2022-08-26T00:25:25.185Z,20.80
2022-08-26T00:27:52.249Z,20.80
2022-08-26T00:30:24.177Z,20.80
2022-08-26T00:32:53.280Z,20.70
2022-08-26T00:35:20.351Z,20.80
2022-08-26T00:37:47.158Z,20.70
2022-08-26T00:40:15.557Z,20.70
2022-08-26T00:42:46.012Z,20.60
2022-08-26T00:45:13.984Z,20.60
2022-08-26T00:47:44.158Z,20.60
2022-08-26T00:50:11.816Z,20.60
2022-08-26T00:52:38.594Z,20.60
2022-08-26T00:55:05.440Z,20.60
2022-08-26T00:57:32.267Z,20.60
2022-08-26T00:59:59.320Z,20.60
2022-08-26T01:02:26.576Z,20.50
2022-08-26T01:04:56.531Z,20.50
2022-08-26T01:07:27.593Z,20.50
2022-08-26T01:09:57.667Z,20.50
2022-08-26T01:12:25.768Z,20.40
2022-08-26T01:14:52.553Z,20.40
2022-08-26T01:17:19.371Z,20.40
2022-08-26T01:19:47.600Z,20.40
2022-08-26T01:22:16.748Z,20.40
2022-08-26T01:24:43.526Z,20.40
2022-08-26T01:27:10.917Z,20.30
2022-08-26T01:29:38.487Z,20.30
2022-08-26T01:32:06.266Z,20.40
2022-08-26T01:34:35.245Z,20.40
2022-08-26T01:37:07.637Z,20.40
2022-08-26T01:39:34.800Z,20.30
2022-08-26T01:42:03.322Z,20.30
2022-08-26T01:44:38.867Z,20.30
2022-08-26T01:47:06.525Z,20.30
2022-08-26T01:49:33.688Z,20.30
2022-08-26T01:52:02.082Z,20.20
2022-08-26T01:54:29.885Z,20.20
2022-08-26T01:56:56.685Z,20.20
2022-08-26T01:59:23.885Z,20.20
2022-08-26T02:01:50.701Z,20.10
2022-08-26T02:04:24.487Z,20.00
2022-08-26T02:06:51.416Z,20.00
2022-08-26T02:09:18.216Z,20.00
2022-08-26T02:11:47.135Z,20.00
2022-08-26T02:14:26.970Z,19.90
2022-08-26T02:16:54.053Z,19.90
2022-08-26T02:19:22.058Z,19.90
2022-08-26T02:21:51.062Z,19.90
2022-08-26T02:24:22.945Z,19.90
2022-08-26T02:26:50.308Z,19.90
2022-08-26T02:29:25.071Z,19.80
2022-08-26T02:31:52.143Z,19.80
2022-08-26T02:34:19.978Z,19.80
2022-08-26T02:36:46.768Z,19.80
2022-08-26T02:39:16.920Z,19.80
2022-08-26T02:41:48.803Z,19.80
2022-08-26T02:44:15.660Z,19.80
2022-08-26T02:46:46.777Z,19.90
2022-08-26T02:49:14.474Z,19.80
2022-08-26T02:51:41.253Z,19.90
2022-08-26T02:54:09.985Z,19.90
2022-08-26T02:56:36.774Z,19.80
2022-08-26T02:59:03.656Z,19.80
2022-08-26T03:01:32.598Z,19.80
2022-08-26T03:03:59.841Z,19.80
2022-08-26T03:06:26.636Z,19.80
2022-08-26T03:08:53.392Z,19.70
2022-08-26T03:11:20.175Z,19.70
2022-08-26T03:13:48.684Z,19.70
2022-08-26T03:16:15.732Z,19.70
2022-08-26T03:18:42.617Z,19.70
2022-08-26T03:21:10.874Z,19.70
2022-08-26T03:23:38.501Z,19.70
2022-08-26T03:26:05.661Z,19.60
2022-08-26T03:28:32.624Z,19.70
2022-08-26T03:30:59.470Z,19.60
2022-08-26T03:33:26.475Z,19.60
2022-08-26T03:35:53.551Z,19.60
2022-08-26T03:38:25.120Z,19.60
2022-08-26T03:40:52.599Z,19.60
2022-08-26T03:43:19.715Z,19.60
2022-08-26T03:45:46.725Z,19.60
2022-08-26T03:48:13.662Z,19.60
2022-08-26T03:50:40.499Z,19.70
2022-08-26T03:53:12.665Z,19.70
2022-08-26T03:55:40.220Z,19.70
2022-08-26T03:58:06.978Z,19.70
2022-08-26T04:00:34.452Z,19.80
2022-08-26T04:03:01.360Z,19.70
2022-08-26T04:05:28.400Z,19.70
2022-08-26T04:07:55.211Z,19.70
2022-08-26T04:10:28.716Z,19.60
2022-08-26T04:12:56.604Z,19.60
2022-08-26T04:15:25.916Z,19.50
2022-08-26T04:17:52.654Z,19.50
2022-08-26T04:20:19.603Z,19.50
2022-08-26T04:22:46.361Z,19.60
2022-08-26T04:25:13.310Z,19.60
2022-08-26T04:27:40.746Z,19.60
2022-08-26T04:30:07.886Z,19.70
2022-08-26T04:32:35.692Z,19.70
2022-08-26T04:35:03.381Z,19.70
2022-08-26T04:37:31.514Z,19.70
2022-08-26T04:39:59.418Z,19.80
2022-08-26T04:42:26.336Z,19.80
2022-08-26T04:44:53.298Z,19.80
2022-08-26T04:47:20.060Z,19.90
2022-08-26T04:49:46.854Z,20.00
2022-08-26T04:52:13.688Z,20.10
2022-08-26T04:54:42.028Z,20.20
2022-08-26T04:57:08.917Z,20.40
2022-08-26T04:59:39.180Z,20.50
2022-08-26T05:02:07.003Z,20.80
2022-08-26T05:04:34.030Z,21.10
2022-08-26T05:07:02.734Z,21.30
2022-08-26T05:09:29.877Z,21.60
2022-08-26T05:11:57.317Z,22.00
2022-08-26T05:14:24.271Z,22.20
2022-08-26T05:16:51.339Z,22.50
2022-08-26T05:19:18.942Z,22.70
2022-08-26T05:21:47.220Z,23.10
2022-08-26T05:24:14.130Z,23.40
2022-08-26T05:26:41.031Z,23.70
2022-08-26T05:29:07.954Z,23.90
2022-08-26T05:31:34.891Z,24.00
2022-08-26T05:34:03.637Z,24.20
2022-08-26T05:36:31.141Z,24.40
2022-08-26T05:38:57.986Z,24.70
2022-08-26T05:41:34.454Z,25.00
2022-08-26T05:44:03.451Z,25.20
2022-08-26T05:46:31.245Z,25.40
2022-08-26T05:48:58.066Z,25.50
2022-08-26T05:51:26.097Z,26.00
2022-08-26T05:53:54.885Z,26.50
2022-08-26T05:56:24.919Z,26.90
2022-08-26T05:58:52.144Z,27.10
2022-08-26T06:01:20.442Z,27.50
2022-08-26T06:03:49.181Z,27.90
2022-08-26T06:06:28.546Z,28.00
2022-08-26T06:08:57.492Z,28.10
2022-08-26T06:11:27.229Z,28.60
2022-08-26T06:13:54.578Z,29.10
2022-08-26T06:16:23.590Z,29.70
2022-08-26T06:18:51.657Z,30.00
2022-08-26T06:21:24.621Z,30.30
2022-08-26T06:24:11.152Z,30.70
2022-08-26T06:26:38.855Z,31.00
2022-08-26T06:29:09.771Z,31.20
2022-08-26T06:31:36.671Z,31.40
2022-08-26T06:34:08.544Z,31.70
2022-08-26T06:36:37.934Z,32.00
2022-08-26T06:39:09.495Z,32.40
2022-08-26T06:41:40.172Z,32.70
2022-08-26T06:44:10.031Z,33.40
2022-08-26T06:46:37.282Z,33.90
2022-08-26T06:49:04.543Z,33.50
2022-08-26T06:51:32.317Z,33.20
2022-08-26T06:54:01.603Z,33.40
2022-08-26T06:56:29.566Z,33.80
2022-08-26T06:58:56.376Z,34.20
2022-08-26T07:01:23.325Z,34.10
2022-08-26T07:03:50.856Z,33.90
2022-08-26T07:06:20.417Z,34.00
2022-08-26T07:08:47.562Z,34.20
2022-08-26T07:11:14.517Z,34.60
2022-08-26T07:13:41.275Z,35.00
2022-08-26T07:16:12.564Z,35.40
2022-08-26T07:18:41.530Z,35.70
2022-08-26T07:21:12.097Z,36.10
2022-08-26T07:23:39.085Z,35.90
2022-08-26T07:26:07.928Z,36.10
2022-08-26T07:28:34.894Z,36.20
2022-08-26T07:31:11.071Z,36.40
2022-08-26T07:33:39.200Z,36.20
2022-08-26T07:36:06.487Z,36.10
2022-08-26T07:38:33.845Z,36.00
2022-08-26T07:41:01.934Z,36.20
2022-08-26T07:43:29.279Z,36.20
2022-08-26T07:45:56.135Z,35.90
2022-08-26T07:48:23.151Z,36.40
2022-08-26T07:50:50.829Z,37.50
2022-08-26T07:53:20.379Z,38.20
2022-08-26T07:55:47.380Z,38.80
2022-08-26T07:58:14.242Z,38.90
2022-08-26T08:00:41.527Z,39.00
2022-08-26T08:03:08.613Z,38.90
2022-08-26T08:05:36.895Z,38.80
2022-08-26T08:08:27.777Z,38.60
2022-08-26T08:10:55.523Z,38.70
2022-08-26T08:13:22.279Z,39.20
2022-08-26T08:15:50.442Z,39.90
2022-08-26T08:18:18.043Z,40.40
2022-08-26T08:20:59.063Z,39.80
2022-08-26T08:23:32.070Z,39.20
2022-08-26T08:26:05.987Z,39.20
2022-08-26T08:28:35.449Z,39.60
2022-08-26T08:31:02.395Z,39.80
2022-08-26T08:33:33.638Z,40.10
2022-08-26T08:36:00.443Z,40.70
2022-08-26T08:38:27.440Z,41.10
2022-08-26T08:40:54.259Z,41.40
2022-08-26T08:43:26.836Z,41.60
2022-08-26T08:45:58.179Z,41.20
2022-08-26T08:48:27.959Z,40.70
2022-08-26T08:51:06.954Z,40.30
2022-08-26T08:53:37.550Z,39.90
2022-08-26T08:56:21.315Z,40.10
2022-08-26T08:58:51.569Z,40.50
2022-08-26T09:01:23.035Z,40.20
2022-08-26T09:04:09.090Z,39.50
2022-08-26T09:06:37.801Z,39.10
2022-08-26T09:09:08.265Z,39.20
2022-08-26T09:11:35.185Z,39.70
2022-08-26T09:14:02.008Z,40.40
2022-08-26T09:16:34.081Z,40.70
2022-08-26T09:19:07.719Z,41.00
2022-08-26T09:21:34.926Z,40.70
2022-08-26T09:24:01.745Z,41.00
2022-08-26T09:26:41.024Z,41.40
2022-08-26T09:29:36.124Z,41.80
2022-08-26T09:32:22.034Z,41.80
2022-08-26T09:34:53.079Z,41.90
2022-08-26T09:37:32.551Z,41.80
2022-08-26T09:40:14.517Z,42.00
2022-08-26T09:42:41.483Z,42.20
2022-08-26T09:45:10.497Z,42.60
2022-08-26T09:47:38.216Z,43.10
2022-08-26T09:50:12.447Z,43.30
2022-08-26T09:52:40.483Z,42.90
2022-08-26T09:55:09.689Z,42.10
2022-08-26T09:57:44.032Z,41.70
2022-08-26T10:00:26.869Z,42.00
2022-08-26T10:02:56.055Z,42.60
2022-08-26T10:05:32.401Z,43.10
2022-08-26T10:07:59.660Z,43.20
2022-08-26T10:10:31.092Z,43.10
2022-08-26T10:13:03.098Z,42.60
2022-08-26T10:15:30.953Z,41.50
2022-08-26T10:18:01.211Z,40.50
2022-08-26T10:20:28.959Z,39.50
2022-08-26T10:22:59.978Z,38.90
2022-08-26T10:25:28.530Z,38.70
2022-08-26T10:28:00.138Z,38.70
2022-08-26T10:30:47.190Z,38.70
2022-08-26T10:33:15.412Z,38.60
2022-08-26T10:35:50.402Z,38.30
2022-08-26T10:38:18.417Z,38.00
2022-08-26T10:40:45.328Z,36.90
2022-08-26T10:43:21.734Z,36.10
2022-08-26T10:45:57.185Z,35.40
2022-08-26T10:48:36.034Z,35.00
2022-08-26T10:51:04.203Z,34.90
2022-08-26T10:53:34.161Z,35.00
2022-08-26T10:56:18.808Z,35.20
2022-08-26T10:58:51.451Z,35.10
2022-08-26T11:01:40.994Z,34.80
2022-08-26T11:04:25.989Z,34.70
2022-08-26T11:07:11.590Z,34.80
2022-08-26T11:09:47.909Z,34.80
2022-08-26T11:12:34.659Z,35.00
2022-08-26T11:15:02.729Z,35.00
2022-08-26T11:17:44.298Z,34.90
2022-08-26T11:20:13.398Z,34.90
2022-08-26T11:22:47.527Z,34.70
2022-08-26T11:25:15.629Z,34.70
2022-08-26T11:27:48.301Z,34.80
2022-08-26T11:30:15.939Z,34.90
2022-08-26T11:32:46.829Z,34.70
2022-08-26T11:35:19.362Z,34.60
2022-08-26T11:37:50.639Z,34.60
2022-08-26T11:40:20.760Z,34.70
2022-08-26T11:42:49.269Z,34.80
2022-08-26T11:45:17.993Z,34.60
2022-08-26T11:47:46.570Z,34.50
2022-08-26T11:50:20.474Z,34.60
2022-08-26T11:52:51.404Z,35.00
2022-08-26T11:55:19.155Z,35.10
2022-08-26T11:57:47.073Z,35.10
2022-08-26T12:00:45.761Z,34.80
2022-08-26T12:03:16.321Z,34.50
2022-08-26T12:05:43.978Z,34.30
2022-08-26T12:08:12.453Z,34.00
2022-08-26T12:10:40.183Z,33.70
2022-08-26T12:13:07.248Z,33.40
2022-08-26T12:15:34.139Z,33.40
2022-08-26T12:18:17.125Z,33.60
2022-08-26T12:20:48.188Z,33.80
2022-08-26T12:23:41.791Z,34.10
2022-08-26T12:26:25.545Z,34.30
2022-08-26T12:28:59.480Z,34.20
2022-08-26T12:31:46.742Z,34.10
2022-08-26T12:34:18.550Z,34.10
2022-08-26T12:36:48.753Z,34.20
2022-08-26T12:39:17.582Z,34.10
2022-08-26T12:41:48.954Z,34.00
2022-08-26T12:44:38.017Z,33.90
2022-08-26T12:47:04.869Z,33.90
2022-08-26T12:49:32.255Z,34.00
2022-08-26T12:51:59.139Z,33.80
2022-08-26T12:54:45.918Z,33.70
2022-08-26T12:57:13.269Z,33.60
2022-08-26T12:59:40.129Z,33.50
2022-08-26T13:02:07.062Z,33.50
2022-08-26T13:04:41.131Z,33.20
2022-08-26T13:07:24.445Z,33.00
2022-08-26T13:09:51.859Z,32.90
2022-08-26T13:12:24.741Z,32.80
2022-08-26T13:14:51.638Z,32.90
2022-08-26T13:17:18.569Z,33.10
2022-08-26T13:19:45.431Z,33.30
2022-08-26T13:22:12.573Z,33.40
2022-08-26T13:24:43.242Z,33.40
2022-08-26T13:27:10.977Z,33.50
2022-08-26T13:29:37.827Z,33.70
2022-08-26T13:32:04.951Z,33.80
2022-08-26T13:34:34.202Z,33.70
2022-08-26T13:37:01.091Z,33.60
2022-08-26T13:39:42.425Z,33.70
2022-08-26T13:42:09.364Z,33.70
2022-08-26T13:44:55.697Z,33.50
2022-08-26T13:47:26.287Z,33.50
2022-08-26T13:50:15.244Z,33.50
2022-08-26T13:53:00.844Z,33.40
2022-08-26T13:55:27.936Z,33.20
2022-08-26T13:57:55.312Z,33.00
2022-08-26T14:00:22.973Z,33.00
2022-08-26T14:02:49.962Z,33.00
2022-08-26T14:05:16.922Z,32.90
2022-08-26T14:07:43.842Z,32.80
2022-08-26T14:10:10.907Z,32.80
2022-08-26T14:12:37.829Z,32.80
2022-08-26T14:15:04.915Z,32.90
2022-08-26T14:17:32.862Z,32.90
2022-08-26T14:20:00.031Z,32.90
2022-08-26T14:22:26.952Z,32.90
2022-08-26T14:24:53.845Z,32.90
2022-08-26T14:27:20.668Z,32.80
2022-08-26T14:29:47.527Z,32.70
2022-08-26T14:32:17.636Z,32.60
2022-08-26T14:34:48.123Z,32.60
2022-08-26T14:37:15.534Z,32.60
2022-08-26T14:39:42.436Z,32.50
2022-08-26T14:42:10.136Z,32.40
2022-08-26T14:44:37.334Z,32.40
2022-08-26T14:47:04.453Z,32.30
2022-08-26T14:49:31.759Z,32.30
2022-08-26T14:51:58.658Z,32.40
2022-08-26T14:54:25.437Z,32.40
2022-08-26T14:57:00.459Z,32.30
2022-08-26T14:59:28.211Z,32.30
2022-08-26T15:01:55.197Z,32.30
2022-08-26T15:04:22.755Z,32.40
2022-08-26T15:06:49.735Z,32.40
2022-08-26T15:09:16.737Z,32.30
2022-08-26T15:11:43.603Z,32.20
2022-08-26T15:14:19.047Z,32.20
2022-08-26T15:16:46.744Z,32.10
2022-08-26T15:19:14.701Z,32.20
2022-08-26T15:21:41.589Z,32.20
2022-08-26T15:24:08.427Z,32.30
2022-08-26T15:26:35.254Z,32.30
2022-08-26T15:29:05.044Z,32.30
2022-08-26T15:31:32.347Z,32.30
2022-08-26T15:34:02.825Z,32.30
2022-08-26T15:36:29.944Z,32.20
2022-08-26T15:38:57.400Z,32.10
2022-08-26T15:41:24.518Z,32.10
2022-08-26T15:43:51.580Z,32.00
2022-08-26T15:46:18.785Z,32.00
2022-08-26T15:48:45.774Z,32.00
2022-08-26T15:51:45.837Z,31.90
2022-08-26T15:54:13.425Z,31.90
2022-08-26T15:56:40.379Z,31.80
2022-08-26T15:59:08.075Z,31.80
2022-08-26T16:01:35.273Z,31.70
2022-08-26T16:04:02.436Z,31.70
2022-08-26T16:06:30.737Z,31.60
2022-08-26T16:08:57.671Z,31.60
2022-08-26T16:11:24.712Z,31.60
2022-08-26T16:13:51.552Z,31.50
2022-08-26T16:16:18.642Z,31.40
2022-08-26T16:18:45.495Z,31.40
2022-08-26T16:21:24.473Z,31.30
2022-08-26T16:23:51.366Z,31.20
2022-08-26T16:26:19.014Z,31.10
2022-08-26T16:28:45.970Z,31.10
2022-08-26T16:31:12.978Z,31.10
2022-08-26T16:33:40.001Z,31.10
2022-08-26T16:36:06.980Z,31.00
2022-08-26T16:38:34.026Z,31.00
2022-08-26T16:41:01.240Z,30.90
2022-08-26T16:43:28.040Z,30.90
2022-08-26T16:45:54.928Z,30.90
2022-08-26T16:48:21.767Z,30.70
2022-08-26T16:50:49.413Z,30.60
2022-08-26T16:53:16.322Z,30.50
2022-08-26T16:55:49.679Z,30.30
2022-08-26T16:58:17.026Z,30.20
2022-08-26T17:00:44.151Z,30.10
2022-08-26T17:03:11.064Z,29.90
2022-08-26T17:05:37.909Z,29.90
2022-08-26T17:08:04.828Z,29.80
2022-08-26T17:10:31.822Z,29.70
2022-08-26T17:12:58.687Z,29.70
2022-08-26T17:15:25.846Z,29.60
2022-08-26T17:17:52.873Z,29.60
2022-08-26T17:20:19.969Z,29.60
2022-08-26T17:22:47.422Z,29.50
2022-08-26T17:25:25.088Z,29.40
2022-08-26T17:27:52.065Z,29.30
2022-08-26T17:30:19.022Z,29.20
2022-08-26T17:32:46.048Z,29.00
2022-08-26T17:35:13.102Z,28.90
2022-08-26T17:37:40.006Z,28.70
2022-08-26T17:40:07.840Z,28.50
2022-08-26T17:42:34.625Z,28.30
2022-08-26T17:45:01.429Z,28.10
2022-08-26T17:47:28.178Z,28.00
2022-08-26T17:49:55.037Z,28.00
2022-08-26T17:52:21.824Z,27.90
2022-08-26T17:54:51.630Z,27.90
2022-08-26T17:57:18.450Z,27.90
2022-08-26T17:59:45.938Z,27.80
2022-08-26T18:02:14.165Z,27.70
2022-08-26T18:04:40.952Z,27.50
2022-08-26T18:07:07.761Z,27.40
2022-08-26T18:09:34.554Z,27.30
2022-08-26T18:12:01.378Z,27.20
2022-08-26T18:14:28.217Z,27.00
2022-08-26T18:16:55.033Z,27.00
2022-08-26T18:19:21.831Z,26.90
2022-08-26T18:21:48.996Z,26.80
2022-08-26T18:24:15.754Z,26.70
2022-08-26T18:26:48.099Z,26.70
2022-08-26T18:29:15.253Z,26.60
2022-08-26T18:31:42.041Z,26.60
2022-08-26T18:34:12.830Z,26.60
2022-08-26T18:36:40.388Z,26.50
2022-08-26T18:39:07.487Z,26.50
2022-08-26T18:41:34.814Z,26.40
2022-08-26T18:44:01.623Z,26.40
2022-08-26T18:46:28.553Z,26.40
2022-08-26T18:48:55.547Z,26.30
2022-08-26T18:51:23.729Z,26.20
2022-08-26T18:53:50.567Z,26.10
2022-08-26T18:56:18.660Z,26.00
2022-08-26T18:58:45.900Z,26.00
2022-08-26T19:01:13.115Z,26.00
2022-08-26T19:03:40.081Z,26.00
2022-08-26T19:06:07.002Z,25.90
2022-08-26T19:08:33.780Z,25.90
2022-08-26T19:11:01.031Z,25.90
2022-08-26T19:13:27.819Z,25.80
2022-08-26T19:15:55.347Z,25.80
2022-08-26T19:18:22.323Z,25.70
2022-08-26T19:20:49.125Z,25.60
2022-08-26T19:23:30.953Z,25.60
2022-08-26T19:25:58.980Z,25.60
2022-08-26T19:28:26.014Z,25.60
2022-08-26T19:30:53.360Z,25.50
2022-08-26T19:33:20.277Z,25.50
2022-08-26T19:35:47.064Z,25.40
2022-08-26T19:38:14.010Z,25.40
2022-08-26T19:40:40.848Z,25.30
2022-08-26T19:43:07.583Z,25.30
2022-08-26T19:45:34.406Z,25.30
2022-08-26T19:48:01.235Z,25.30
2022-08-26T19:50:28.600Z,25.20
2022-08-26T19:52:55.362Z,25.20
2022-08-26T19:55:22.553Z,25.20
2022-08-26T19:57:50.302Z,25.20
2022-08-26T20:00:18.027Z,25.10
2022-08-26T20:02:45.477Z,25.00
2022-08-26T20:05:12.706Z,24.90
2022-08-26T20:07:39.498Z,24.80
2022-08-26T20:10:07.093Z,24.90
2022-08-26T20:12:35.630Z,24.80
2022-08-26T20:15:05.022Z,24.80
2022-08-26T20:17:32.132Z,24.80
2022-08-26T20:20:33.004Z,24.70
2022-08-26T20:23:01.418Z,24.70
2022-08-26T20:25:28.299Z,24.60
2022-08-26T20:27:55.144Z,24.60
2022-08-26T20:30:22.042Z,24.50
2022-08-26T20:32:48.910Z,24.40
2022-08-26T20:35:15.830Z,24.30
2022-08-26T20:37:42.703Z,24.20
2022-08-26T20:40:10.558Z,24.20
2022-08-26T20:42:38.138Z,24.10
2022-08-26T20:45:05.888Z,24.00
2022-08-26T20:47:33.591Z,23.90
2022-08-26T20:50:00.480Z,23.90
2022-08-26T20:52:27.602Z,23.90
2022-08-26T20:54:54.416Z,23.90
2022-08-26T20:57:22.371Z,23.90
2022-08-26T20:59:49.203Z,23.80
2022-08-26T21:02:16.096Z,23.80
2022-08-26T21:04:42.962Z,23.70
2022-08-26T21:07:09.844Z,23.70
2022-08-26T21:09:36.667Z,23.70
2022-08-26T21:12:05.199Z,23.70
2022-08-26T21:14:32.025Z,23.70
2022-08-26T21:16:59.560Z,23.70
2022-08-26T21:19:26.746Z,23.70
2022-08-26T21:21:53.633Z,23.60
2022-08-26T21:24:20.445Z,23.60
2022-08-26T21:26:47.237Z,23.50
2022-08-26T21:29:14.413Z,23.50
2022-08-26T21:31:46.076Z,23.50
2022-08-26T21:34:16.279Z,23.40
2022-08-26T21:36:43.189Z,23.40
2022-08-26T21:39:11.961Z,23.30
2022-08-26T21:41:39.301Z,23.20
2022-08-26T21:44:06.168Z,23.20
2022-08-26T21:46:36.391Z,23.20
2022-08-26T21:49:03.949Z,23.20
2022-08-26T21:51:31.761Z,23.10
2022-08-26T21:53:59.009Z,23.10
2022-08-26T21:56:26.686Z,23.10
2022-08-26T21:58:55.030Z,23.10
2022-08-26T22:01:22.548Z,23.00
2022-08-26T22:03:49.710Z,23.00
2022-08-26T22:06:17.510Z,23.00
2022-08-26T22:08:44.312Z,23.00
2022-08-26T22:11:11.277Z,23.00
2022-08-26T22:13:38.487Z,23.00
2022-08-26T22:16:05.669Z,23.10
2022-08-26T22:18:32.544Z,23.10
2022-08-26T22:21:00.674Z,23.00
2022-08-26T22:23:27.562Z,23.00
2022-08-26T22:25:54.570Z,23.00
2022-08-26T22:28:21.612Z,22.90
2022-08-26T22:30:48.817Z,22.80
2022-08-26T22:33:16.009Z,22.80
2022-08-26T22:35:45.150Z,22.80
2022-08-26T22:38:12.025Z,22.80
2022-08-26T22:40:42.624Z,22.80
2022-08-26T22:43:09.406Z,22.80
2022-08-26T22:45:39.847Z,22.70
2022-08-26T22:48:06.836Z,22.70
2022-08-26T22:50:33.775Z,22.70
2022-08-26T22:53:00.578Z,22.60
2022-08-26T22:55:27.389Z,22.50
2022-08-26T22:57:54.314Z,22.50
2022-08-26T23:00:21.222Z,22.50
2022-08-26T23:02:59.085Z,22.40
2022-08-26T23:05:25.940Z,22.40
2022-08-26T23:07:52.866Z,22.30
2022-08-26T23:10:19.722Z,22.20
2022-08-26T23:12:46.516Z,22.20
2022-08-26T23:15:13.362Z,22.10
2022-08-26T23:17:40.306Z,22.10
2022-08-26T23:20:09.132Z,22.00
2022-08-26T23:22:36.210Z,22.00
2022-08-26T23:25:03.386Z,22.00
2022-08-26T23:27:35.274Z,22.00
2022-08-26T23:30:02.467Z,22.00
2022-08-26T23:32:29.274Z,22.10
2022-08-26T23:34:56.112Z,22.00
2022-08-26T23:37:23.479Z,22.00
2022-08-26T23:39:53.525Z,22.00
2022-08-26T23:42:20.393Z,22.00
2022-08-26T23:44:47.256Z,22.00
2022-08-26T23:47:14.285Z,22.00
2022-08-26T23:49:41.539Z,22.00
2022-08-26T23:52:26.813Z,22.00
2022-08-26T23:54:53.615Z,21.90
2022-08-26T23:57:20.884Z,21.80
2022-08-26T23:59:48.632Z,21.80
